Batavia, New York
Current Conditions -  °F | °C
As of 1:54 AM on Monday 22 Dec 2014 (Local Time) from KROC Reporting Station
Overcast Overcast  
Wind Chill: 24°   Ceiling: 2800
Heat Index: 32°   Visibility: 10mi
Dew Point: 21°   Wind: 10mph
Humidity: 64%   Direction: 150°SSE
Pressure: 30.28"   Gusts: NA
Location:  43°N, 78.19°W
Report Text: KROC 220654Z 15009KT 10SM OVC028 00/M06 A3028 RMK AO2 SLP262 BINOVC T00001061
Loading
Personal Weather Stations






























Interactive Weather Map New forecast layout! Learn more

10-Day Weather Forecast

Advertisements
Track Severe Weather on mobile